Hlavní strana
METAR-TAF:

METAR-TAF

Letiště :

Letecká základna

Niederstetten, Německo

zeměpisná šířka: 49-24N, zeměpisná délka: 009-58E, výška: 468 m

Aktuální stav počasí

Zpráva byla vytvořena před 37 minutami, v 07:20 UTC
Východojihovýchodní vítr 7 kt
Teplota 19°C
Vlhkost vzduchu 78%
Tlak 1021 hPa
Viditelnost 10 km a více
Oblačno až skoro zataženo ve výšce 30000 ft

METAR: ETHN 260720Z 12007KT 9999 BKN300 19/15 Q1021 BLU+

Čas: 09:57 (07:57 UTC)


TAF: chybějící

Stav a předpovědi počasí z více než 4 000 letišť (zprávy METAR a TAF).

Červené a žluté tečky na mapě představují dostupné meteorologické stanice.

Když kurzor umístíte na tečku, zobrazí se název stanice.

Pak kliknutím zobrazíte stav a předpověď počasí.

Chcete-li změnit mapu, kliknutím na zelené tlačítko se znaménkem +mapu přiblížíte, kliknutím na zelené tlačítko se znaménkem – mapu oddálíte a kliknutím na zelené šipky přejdete na sousední mapy.


METAR-TAF: